sensor_id;sensor_type;location;lat;lon;timestamp;P1;durP1;ratioP1;P2;durP2;ratioP2
3081;SDS011;1551;51.046;7.010;2023-02-22T00:02:06;23.48;;;14.57;;
3081;SDS011;1551;51.046;7.010;2023-02-22T00:04:58;21.08;;;14.65;;
3081;SDS011;1551;51.046;7.010;2023-02-22T00:07:47;25.45;;;14.68;;
3081;SDS011;1551;51.046;7.010;2023-02-22T00:10:37;26.37;;;14.37;;
3081;SDS011;1551;51.046;7.010;2023-02-22T00:13:26;28.90;;;15.13;;
3081;SDS011;1551;51.046;7.010;2023-02-22T00:16:18;25.75;;;15.10;;
3081;SDS011;1551;51.046;7.010;2023-02-22T00:19:08;25.02;;;15.48;;
3081;SDS011;1551;51.046;7.010;2023-02-22T00:21:58;26.67;;;15.65;;
3081;SDS011;1551;51.046;7.010;2023-02-22T00:24:47;27.77;;;15.30;;
3081;SDS011;1551;51.046;7.010;2023-02-22T00:27:37;24.40;;;15.15;;
3081;SDS011;1551;51.046;7.010;2023-02-22T00:30:28;34.22;;;13.32;;
3081;SDS011;1551;51.046;7.010;2023-02-22T00:33:19;28.05;;;14.45;;
3081;SDS011;1551;51.046;7.010;2023-02-22T00:36:09;31.58;;;14.40;;
3081;SDS011;1551;51.046;7.010;2023-02-22T00:39:00;39.05;;;13.98;;
3081;SDS011;1551;51.046;7.010;2023-02-22T00:41:49;34.40;;;14.60;;
3081;SDS011;1551;51.046;7.010;2023-02-22T00:44:38;35.65;;;14.00;;
3081;SDS011;1551;51.046;7.010;2023-02-22T00:47:27;35.25;;;15.27;;
3081;SDS011;1551;51.046;7.010;2023-02-22T00:50:17;29.00;;;13.30;;
3081;SDS011;1551;51.046;7.010;2023-02-22T00:53:07;30.17;;;15.70;;
3081;SDS011;1551;51.046;7.010;2023-02-22T00:55:57;32.10;;;15.25;;
3081;SDS011;1551;51.046;7.010;2023-02-22T00:58:47;28.40;;;14.57;;
3081;SDS011;1551;51.046;7.010;2023-02-22T01:01:36;32.30;;;15.40;;
3081;SDS011;1551;51.046;7.010;2023-02-22T01:04:25;27.48;;;14.45;;
3081;SDS011;1551;51.046;7.010;2023-02-22T01:07:14;36.42;;;14.68;;
3081;SDS011;1551;51.046;7.010;2023-02-22T01:10:03;24.55;;;14.82;;
3081;SDS011;1551;51.046;7.010;2023-02-22T01:12:53;25.63;;;14.27;;
3081;SDS011;1551;51.046;7.010;2023-02-22T01:15:42;27.30;;;14.27;;
3081;SDS011;1551;51.046;7.010;2023-02-22T01:18:33;27.17;;;14.60;;
3081;SDS011;1551;51.046;7.010;2023-02-22T01:21:23;27.20;;;12.77;;
3081;SDS011;1551;51.046;7.010;2023-02-22T01:24:13;26.65;;;14.52;;
3081;SDS011;1551;51.046;7.010;2023-02-22T01:27:04;27.83;;;15.15;;
3081;SDS011;1551;51.046;7.010;2023-02-22T01:29:53;36.92;;;15.07;;
3081;SDS011;1551;51.046;7.010;2023-02-22T01:32:43;29.77;;;15.10;;
3081;SDS011;1551;51.046;7.010;2023-02-22T01:35:35;30.85;;;15.07;;
3081;SDS011;1551;51.046;7.010;2023-02-22T01:38:26;28.48;;;14.70;;
3081;SDS011;1551;51.046;7.010;2023-02-22T01:41:16;33.30;;;15.80;;
3081;SDS011;1551;51.046;7.010;2023-02-22T01:47:26;32.50;;;15.35;;
3081;SDS011;1551;51.046;7.010;2023-02-22T01:50:15;31.85;;;14.20;;
3081;SDS011;1551;51.046;7.010;2023-02-22T01:53:04;37.70;;;15.13;;
3081;SDS011;1551;51.046;7.010;2023-02-22T01:55:55;26.02;;;13.98;;
3081;SDS011;1551;51.046;7.010;2023-02-22T01:58:47;26.67;;;14.52;;
3081;SDS011;1551;51.046;7.010;2023-02-22T02:01:40;22.00;;;15.02;;
3081;SDS011;1551;51.046;7.010;2023-02-22T02:04:33;32.20;;;15.63;;
3081;SDS011;1551;51.046;7.010;2023-02-22T02:07:24;25.88;;;14.48;;
3081;SDS011;1551;51.046;7.010;2023-02-22T02:10:15;26.98;;;14.88;;
3081;SDS011;1551;51.046;7.010;2023-02-22T02:13:04;27.53;;;13.93;;
3081;SDS011;1551;51.046;7.010;2023-02-22T02:15:54;29.60;;;14.50;;
3081;SDS011;1551;51.046;7.010;2023-02-22T02:18:44;26.98;;;14.25;;
3081;SDS011;1551;51.046;7.010;2023-02-22T02:24:39;23.20;;;14.98;;
3081;SDS011;1551;51.046;7.010;2023-02-22T02:34:22;20.45;;;13.60;;
3081;SDS011;1551;51.046;7.010;2023-02-22T02:37:31;22.08;;;13.70;;
3081;SDS011;1551;51.046;7.010;2023-02-22T02:46:54;15.43;;;12.03;;
3081;SDS011;1551;51.046;7.010;2023-02-22T02:50:05;15.88;;;11.90;;
3081;SDS011;1551;51.046;7.010;2023-02-22T02:53:00;18.38;;;12.38;;
3081;SDS011;1551;51.046;7.010;2023-02-22T02:55:52;21.40;;;12.52;;
3081;SDS011;1551;51.046;7.010;2023-02-22T02:58:48;23.20;;;13.10;;
3081;SDS011;1551;51.046;7.010;2023-02-22T03:11:09;19.53;;;11.33;;
3081;SDS011;1551;51.046;7.010;2023-02-22T03:17:27;29.60;;;12.68;;
3081;SDS011;1551;51.046;7.010;2023-02-22T03:26:52;19.27;;;11.10;;
3081;SDS011;1551;51.046;7.010;2023-02-22T03:29:48;22.42;;;11.70;;
3081;SDS011;1551;51.046;7.010;2023-02-22T03:32:43;25.35;;;12.63;;
3081;SDS011;1551;51.046;7.010;2023-02-22T03:35:43;24.55;;;12.60;;
3081;SDS011;1551;51.046;7.010;2023-02-22T03:38:36;28.25;;;12.75;;
3081;SDS011;1551;51.046;7.010;2023-02-22T03:41:28;23.17;;;13.13;;
3081;SDS011;1551;51.046;7.010;2023-02-22T03:44:23;25.20;;;12.90;;
3081;SDS011;1551;51.046;7.010;2023-02-22T03:47:17;22.20;;;12.65;;
3081;SDS011;1551;51.046;7.010;2023-02-22T03:50:16;25.63;;;12.15;;
3081;SDS011;1551;51.046;7.010;2023-02-22T03:53:08;26.90;;;11.90;;
3081;SDS011;1551;51.046;7.010;2023-02-22T03:56:01;21.38;;;12.63;;
3081;SDS011;1551;51.046;7.010;2023-02-22T03:58:53;21.50;;;11.67;;
3081;SDS011;1551;51.046;7.010;2023-02-22T04:01:43;22.45;;;12.35;;
3081;SDS011;1551;51.046;7.010;2023-02-22T04:04:32;15.70;;;11.48;;
3081;SDS011;1551;51.046;7.010;2023-02-22T04:07:22;21.65;;;11.65;;
3081;SDS011;1551;51.046;7.010;2023-02-22T04:10:12;19.70;;;10.88;;
3081;SDS011;1551;51.046;7.010;2023-02-22T04:13:03;22.25;;;11.70;;
3081;SDS011;1551;51.046;7.010;2023-02-22T04:15:55;17.30;;;10.63;;
3081;SDS011;1551;51.046;7.010;2023-02-22T04:18:45;22.10;;;10.50;;
3081;SDS011;1551;51.046;7.010;2023-02-22T04:21:35;17.10;;;10.93;;
3081;SDS011;1551;51.046;7.010;2023-02-22T04:24:25;12.55;;;9.70;;
3081;SDS011;1551;51.046;7.010;2023-02-22T04:27:15;12.75;;;9.85;;
3081;SDS011;1551;51.046;7.010;2023-02-22T04:30:05;13.93;;;9.80;;
3081;SDS011;1551;51.046;7.010;2023-02-22T04:32:56;17.55;;;11.13;;
3081;SDS011;1551;51.046;7.010;2023-02-22T04:35:45;19.45;;;11.07;;
3081;SDS011;1551;51.046;7.010;2023-02-22T04:38:35;15.55;;;11.50;;
3081;SDS011;1551;51.046;7.010;2023-02-22T04:41:25;14.80;;;9.80;;
3081;SDS011;1551;51.046;7.010;2023-02-22T04:44:14;13.70;;;10.27;;
3081;SDS011;1551;51.046;7.010;2023-02-22T04:47:03;16.60;;;11.18;;
3081;SDS011;1551;51.046;7.010;2023-02-22T04:49:51;20.08;;;10.80;;
3081;SDS011;1551;51.046;7.010;2023-02-22T04:52:41;15.75;;;10.00;;
3081;SDS011;1551;51.046;7.010;2023-02-22T04:55:30;15.95;;;9.93;;
3081;SDS011;1551;51.046;7.010;2023-02-22T04:58:19;13.25;;;10.43;;
3081;SDS011;1551;51.046;7.010;2023-02-22T05:01:10;15.65;;;9.85;;
3081;SDS011;1551;51.046;7.010;2023-02-22T05:04:00;17.80;;;10.30;;
3081;SDS011;1551;51.046;7.010;2023-02-22T05:06:53;13.20;;;10.37;;
3081;SDS011;1551;51.046;7.010;2023-02-22T05:09:41;20.00;;;10.38;;
3081;SDS011;1551;51.046;7.010;2023-02-22T05:12:30;18.95;;;9.88;;
3081;SDS011;1551;51.046;7.010;2023-02-22T05:15:20;13.27;;;9.90;;
3081;SDS011;1551;51.046;7.010;2023-02-22T05:18:10;12.70;;;9.13;;
3081;SDS011;1551;51.046;7.010;2023-02-22T05:20:59;14.70;;;10.60;;
3081;SDS011;1551;51.046;7.010;2023-02-22T05:23:48;17.90;;;9.60;;
3081;SDS011;1551;51.046;7.010;2023-02-22T05:26:37;14.30;;;10.30;;
3081;SDS011;1551;51.046;7.010;2023-02-22T05:29:28;13.32;;;8.55;;
3081;SDS011;1551;51.046;7.010;2023-02-22T05:32:16;13.75;;;9.10;;
3081;SDS011;1551;51.046;7.010;2023-02-22T05:35:05;13.48;;;9.05;;
3081;SDS011;1551;51.046;7.010;2023-02-22T05:37:56;12.27;;;8.50;;
3081;SDS011;1551;51.046;7.010;2023-02-22T05:40:46;16.42;;;9.27;;
3081;SDS011;1551;51.046;7.010;2023-02-22T05:43:35;13.18;;;7.95;;
3081;SDS011;1551;51.046;7.010;2023-02-22T05:46:26;15.10;;;8.52;;
3081;SDS011;1551;51.046;7.010;2023-02-22T05:49:15;13.05;;;8.13;;
3081;SDS011;1551;51.046;7.010;2023-02-22T05:52:04;11.30;;;7.43;;
3081;SDS011;1551;51.046;7.010;2023-02-22T05:54:53;11.35;;;8.35;;
3081;SDS011;1551;51.046;7.010;2023-02-22T05:57:42;9.35;;;8.35;;
3081;SDS011;1551;51.046;7.010;2023-02-22T06:00:31;9.18;;;8.18;;
3081;SDS011;1551;51.046;7.010;2023-02-22T06:03:20;8.75;;;7.50;;
3081;SDS011;1551;51.046;7.010;2023-02-22T06:06:09;8.40;;;7.40;;
3081;SDS011;1551;51.046;7.010;2023-02-22T06:08:58;8.30;;;6.60;;
3081;SDS011;1551;51.046;7.010;2023-02-22T06:11:48;8.67;;;7.50;;
3081;SDS011;1551;51.046;7.010;2023-02-22T06:14:37;9.40;;;7.45;;
3081;SDS011;1551;51.046;7.010;2023-02-22T06:17:26;8.18;;;7.10;;
3081;SDS011;1551;51.046;7.010;2023-02-22T06:20:16;8.30;;;7.50;;
3081;SDS011;1551;51.046;7.010;2023-02-22T06:23:07;7.95;;;7.15;;
3081;SDS011;1551;51.046;7.010;2023-02-22T06:25:56;8.70;;;7.68;;
3081;SDS011;1551;51.046;7.010;2023-02-22T06:28:45;8.60;;;7.65;;
3081;SDS011;1551;51.046;7.010;2023-02-22T06:31:35;9.52;;;8.10;;
3081;SDS011;1551;51.046;7.010;2023-02-22T06:34:24;10.90;;;7.30;;
3081;SDS011;1551;51.046;7.010;2023-02-22T06:37:13;10.15;;;8.40;;
3081;SDS011;1551;51.046;7.010;2023-02-22T06:40:02;10.10;;;8.40;;
3081;SDS011;1551;51.046;7.010;2023-02-22T06:42:52;9.10;;;7.95;;
3081;SDS011;1551;51.046;7.010;2023-02-22T06:45:41;11.15;;;8.20;;
3081;SDS011;1551;51.046;7.010;2023-02-22T06:48:30;9.80;;;8.10;;
3081;SDS011;1551;51.046;7.010;2023-02-22T06:51:19;10.97;;;8.03;;
3081;SDS011;1551;51.046;7.010;2023-02-22T06:54:09;11.35;;;8.40;;
3081;SDS011;1551;51.046;7.010;2023-02-22T06:56:59;10.38;;;8.15;;
3081;SDS011;1551;51.046;7.010;2023-02-22T06:59:48;13.40;;;9.25;;
3081;SDS011;1551;51.046;7.010;2023-02-22T07:02:37;12.53;;;9.43;;
3081;SDS011;1551;51.046;7.010;2023-02-22T07:05:26;13.73;;;9.20;;
3081;SDS011;1551;51.046;7.010;2023-02-22T07:08:16;12.30;;;8.73;;
3081;SDS011;1551;51.046;7.010;2023-02-22T07:11:05;14.38;;;9.23;;
3081;SDS011;1551;51.046;7.010;2023-02-22T07:13:54;12.80;;;9.45;;
3081;SDS011;1551;51.046;7.010;2023-02-22T07:16:43;12.52;;;10.30;;
3081;SDS011;1551;51.046;7.010;2023-02-22T07:19:32;16.58;;;10.68;;
3081;SDS011;1551;51.046;7.010;2023-02-22T07:22:21;14.10;;;10.02;;
3081;SDS011;1551;51.046;7.010;2023-02-22T07:25:10;14.88;;;10.30;;
3081;SDS011;1551;51.046;7.010;2023-02-22T07:28:00;15.83;;;10.17;;
3081;SDS011;1551;51.046;7.010;2023-02-22T07:30:49;14.38;;;9.82;;
3081;SDS011;1551;51.046;7.010;2023-02-22T07:33:38;16.92;;;10.48;;
3081;SDS011;1551;51.046;7.010;2023-02-22T07:36:27;14.13;;;10.32;;
3081;SDS011;1551;51.046;7.010;2023-02-22T07:39:15;14.88;;;10.95;;
3081;SDS011;1551;51.046;7.010;2023-02-22T07:42:04;15.52;;;11.05;;
3081;SDS011;1551;51.046;7.010;2023-02-22T07:44:59;13.85;;;11.20;;
3081;SDS011;1551;51.046;7.010;2023-02-22T07:47:48;14.85;;;10.55;;
3081;SDS011;1551;51.046;7.010;2023-02-22T07:50:36;16.60;;;11.50;;
3081;SDS011;1551;51.046;7.010;2023-02-22T07:53:27;14.32;;;10.65;;
3081;SDS011;1551;51.046;7.010;2023-02-22T07:56:18;15.32;;;10.95;;
3081;SDS011;1551;51.046;7.010;2023-02-22T07:59:07;17.20;;;12.20;;
3081;SDS011;1551;51.046;7.010;2023-02-22T08:01:56;16.30;;;12.88;;
3081;SDS011;1551;51.046;7.010;2023-02-22T08:04:45;16.70;;;13.17;;
3081;SDS011;1551;51.046;7.010;2023-02-22T08:07:38;19.15;;;13.57;;
3081;SDS011;1551;51.046;7.010;2023-02-22T08:10:27;18.15;;;12.93;;
3081;SDS011;1551;51.046;7.010;2023-02-22T08:13:17;19.25;;;14.00;;
3081;SDS011;1551;51.046;7.010;2023-02-22T08:16:07;20.38;;;13.82;;
3081;SDS011;1551;51.046;7.010;2023-02-22T08:18:57;21.10;;;14.43;;
3081;SDS011;1551;51.046;7.010;2023-02-22T08:21:46;18.52;;;14.32;;
3081;SDS011;1551;51.046;7.010;2023-02-22T08:24:35;18.45;;;13.90;;
3081;SDS011;1551;51.046;7.010;2023-02-22T08:27:25;20.30;;;15.27;;
3081;SDS011;1551;51.046;7.010;2023-02-22T08:30:19;17.50;;;13.43;;
3081;SDS011;1551;51.046;7.010;2023-02-22T08:33:11;19.30;;;14.23;;
3081;SDS011;1551;51.046;7.010;2023-02-22T08:36:03;20.70;;;15.43;;
3081;SDS011;1551;51.046;7.010;2023-02-22T08:38:52;21.85;;;15.20;;
3081;SDS011;1551;51.046;7.010;2023-02-22T08:41:41;20.10;;;14.80;;
3081;SDS011;1551;51.046;7.010;2023-02-22T08:44:30;18.13;;;13.87;;
3081;SDS011;1551;51.046;7.010;2023-02-22T08:47:19;18.35;;;13.23;;
3081;SDS011;1551;51.046;7.010;2023-02-22T08:50:10;19.63;;;15.10;;
3081;SDS011;1551;51.046;7.010;2023-02-22T08:53:05;18.00;;;14.77;;
3081;SDS011;1551;51.046;7.010;2023-02-22T08:55:54;17.10;;;13.38;;
3081;SDS011;1551;51.046;7.010;2023-02-22T08:58:43;18.88;;;13.20;;
3081;SDS011;1551;51.046;7.010;2023-02-22T09:01:32;17.37;;;13.40;;
3081;SDS011;1551;51.046;7.010;2023-02-22T09:04:22;18.08;;;14.48;;
3081;SDS011;1551;51.046;7.010;2023-02-22T09:07:11;16.52;;;13.73;;
3081;SDS011;1551;51.046;7.010;2023-02-22T09:10:00;22.67;;;16.33;;
3081;SDS011;1551;51.046;7.010;2023-02-22T09:12:50;18.50;;;14.23;;
3081;SDS011;1551;51.046;7.010;2023-02-22T09:15:39;18.95;;;13.60;;
3081;SDS011;1551;51.046;7.010;2023-02-22T09:18:28;18.73;;;14.63;;
3081;SDS011;1551;51.046;7.010;2023-02-22T09:21:18;17.95;;;14.30;;
3081;SDS011;1551;51.046;7.010;2023-02-22T09:24:07;18.38;;;14.40;;
3081;SDS011;1551;51.046;7.010;2023-02-22T09:26:56;19.08;;;13.05;;
3081;SDS011;1551;51.046;7.010;2023-02-22T09:29:47;18.00;;;13.45;;
3081;SDS011;1551;51.046;7.010;2023-02-22T09:32:36;19.00;;;14.02;;
3081;SDS011;1551;51.046;7.010;2023-02-22T09:35:25;18.75;;;13.30;;
3081;SDS011;1551;51.046;7.010;2023-02-22T09:38:16;16.30;;;12.07;;
3081;SDS011;1551;51.046;7.010;2023-02-22T09:41:23;16.20;;;12.70;;
3081;SDS011;1551;51.046;7.010;2023-02-22T09:44:37;15.35;;;12.60;;
3081;SDS011;1551;51.046;7.010;2023-02-22T09:47:40;18.27;;;13.37;;
3081;SDS011;1551;51.046;7.010;2023-02-22T09:50:37;15.10;;;13.13;;
3081;SDS011;1551;51.046;7.010;2023-02-22T09:56:21;17.80;;;12.50;;
3081;SDS011;1551;51.046;7.010;2023-02-22T09:59:12;16.77;;;12.77;;
3081;SDS011;1551;51.046;7.010;2023-02-22T10:05:33;13.75;;;11.98;;
3081;SDS011;1551;51.046;7.010;2023-02-22T10:08:26;14.88;;;11.90;;
3081;SDS011;1551;51.046;7.010;2023-02-22T10:11:57;16.58;;;11.95;;
3081;SDS011;1551;51.046;7.010;2023-02-22T10:20:53;15.43;;;12.35;;
3081;SDS011;1551;51.046;7.010;2023-02-22T10:27:01;14.88;;;12.05;;
3081;SDS011;1551;51.046;7.010;2023-02-22T10:29:55;15.13;;;11.48;;
3081;SDS011;1551;51.046;7.010;2023-02-22T10:33:03;13.23;;;10.93;;
3081;SDS011;1551;51.046;7.010;2023-02-22T10:35:58;14.75;;;11.00;;
3081;SDS011;1551;51.046;7.010;2023-02-22T10:38:53;12.38;;;9.73;;
3081;SDS011;1551;51.046;7.010;2023-02-22T10:41:46;10.63;;;9.52;;
3081;SDS011;1551;51.046;7.010;2023-02-22T10:44:38;15.93;;;11.75;;
3081;SDS011;1551;51.046;7.010;2023-02-22T10:47:29;12.57;;;9.10;;
3081;SDS011;1551;51.046;7.010;2023-02-22T10:50:18;14.82;;;9.85;;
3081;SDS011;1551;51.046;7.010;2023-02-22T10:53:09;10.25;;;8.70;;
3081;SDS011;1551;51.046;7.010;2023-02-22T10:59:01;10.63;;;8.32;;
3081;SDS011;1551;51.046;7.010;2023-02-22T11:01:53;9.48;;;7.50;;
3081;SDS011;1551;51.046;7.010;2023-02-22T11:04:53;10.40;;;7.90;;
3081;SDS011;1551;51.046;7.010;2023-02-22T11:07:43;9.75;;;7.65;;
3081;SDS011;1551;51.046;7.010;2023-02-22T11:10:32;9.77;;;7.57;;
3081;SDS011;1551;51.046;7.010;2023-02-22T11:22:20;9.43;;;6.70;;
3081;SDS011;1551;51.046;7.010;2023-02-22T11:25:26;9.90;;;6.90;;
3081;SDS011;1551;51.046;7.010;2023-02-22T11:28:24;8.27;;;6.68;;
3081;SDS011;1551;51.046;7.010;2023-02-22T11:31:22;8.37;;;6.50;;
3081;SDS011;1551;51.046;7.010;2023-02-22T11:34:27;8.93;;;6.35;;
3081;SDS011;1551;51.046;7.010;2023-02-22T11:37:32;10.95;;;6.53;;
3081;SDS011;1551;51.046;7.010;2023-02-22T11:40:24;8.10;;;6.00;;
3081;SDS011;1551;51.046;7.010;2023-02-22T11:43:15;8.07;;;6.13;;
3081;SDS011;1551;51.046;7.010;2023-02-22T11:46:08;6.93;;;5.90;;
3081;SDS011;1551;51.046;7.010;2023-02-22T11:49:02;9.57;;;5.90;;
3081;SDS011;1551;51.046;7.010;2023-02-22T11:52:04;7.60;;;6.00;;
3081;SDS011;1551;51.046;7.010;2023-02-22T12:04:16;8.75;;;5.75;;
3081;SDS011;1551;51.046;7.010;2023-02-22T12:07:27;7.78;;;6.00;;
3081;SDS011;1551;51.046;7.010;2023-02-22T12:13:47;6.82;;;5.70;;
3081;SDS011;1551;51.046;7.010;2023-02-22T12:17:06;8.57;;;6.50;;
3081;SDS011;1551;51.046;7.010;2023-02-22T12:20:01;8.35;;;6.50;;
3081;SDS011;1551;51.046;7.010;2023-02-22T12:23:17;9.35;;;6.10;;
3081;SDS011;1551;51.046;7.010;2023-02-22T12:26:13;8.43;;;6.82;;
3081;SDS011;1551;51.046;7.010;2023-02-22T12:29:33;9.47;;;6.93;;
3081;SDS011;1551;51.046;7.010;2023-02-22T12:32:28;8.70;;;6.60;;
3081;SDS011;1551;51.046;7.010;2023-02-22T12:35:27;8.88;;;7.20;;
3081;SDS011;1551;51.046;7.010;2023-02-22T12:41:35;8.50;;;6.50;;
3081;SDS011;1551;51.046;7.010;2023-02-22T12:44:34;8.25;;;6.80;;
3081;SDS011;1551;51.046;7.010;2023-02-22T12:47:30;6.97;;;5.90;;
3081;SDS011;1551;51.046;7.010;2023-02-22T12:50:26;9.10;;;6.40;;
3081;SDS011;1551;51.046;7.010;2023-02-22T12:53:19;7.43;;;6.63;;
3081;SDS011;1551;51.046;7.010;2023-02-22T12:59:32;7.97;;;6.25;;
3081;SDS011;1551;51.046;7.010;2023-02-22T13:02:27;8.98;;;6.90;;
3081;SDS011;1551;51.046;7.010;2023-02-22T13:05:23;8.55;;;6.85;;
3081;SDS011;1551;51.046;7.010;2023-02-22T13:14:10;11.10;;;7.20;;
3081;SDS011;1551;51.046;7.010;2023-02-22T13:20:29;7.47;;;6.60;;
3081;SDS011;1551;51.046;7.010;2023-02-22T13:29:35;9.02;;;7.00;;
3081;SDS011;1551;51.046;7.010;2023-02-22T13:42:07;9.60;;;6.97;;
3081;SDS011;1551;51.046;7.010;2023-02-22T13:48:12;10.82;;;7.97;;
3081;SDS011;1551;51.046;7.010;2023-02-22T13:54:05;13.00;;;7.45;;
3081;SDS011;1551;51.046;7.010;2023-02-22T13:57:02;9.30;;;6.60;;
3081;SDS011;1551;51.046;7.010;2023-02-22T14:03:04;7.68;;;5.50;;
3081;SDS011;1551;51.046;7.010;2023-02-22T14:06:06;7.90;;;6.50;;
3081;SDS011;1551;51.046;7.010;2023-02-22T14:08:57;8.98;;;5.78;;
3081;SDS011;1551;51.046;7.010;2023-02-22T14:11:47;10.25;;;6.20;;
3081;SDS011;1551;51.046;7.010;2023-02-22T14:14:54;8.68;;;6.00;;
3081;SDS011;1551;51.046;7.010;2023-02-22T14:18:03;8.65;;;6.35;;
3081;SDS011;1551;51.046;7.010;2023-02-22T14:21:06;6.85;;;5.43;;
3081;SDS011;1551;51.046;7.010;2023-02-22T14:24:05;6.10;;;5.50;;
3081;SDS011;1551;51.046;7.010;2023-02-22T14:26:58;7.18;;;6.00;;
3081;SDS011;1551;51.046;7.010;2023-02-22T14:29:57;10.57;;;6.60;;
3081;SDS011;1551;51.046;7.010;2023-02-22T14:32:48;9.00;;;5.90;;
3081;SDS011;1551;51.046;7.010;2023-02-22T14:35:39;9.15;;;6.05;;
3081;SDS011;1551;51.046;7.010;2023-02-22T14:38:29;7.85;;;5.28;;
3081;SDS011;1551;51.046;7.010;2023-02-22T14:41:20;7.53;;;5.80;;
3081;SDS011;1551;51.046;7.010;2023-02-22T14:44:15;7.70;;;5.20;;
3081;SDS011;1551;51.046;7.010;2023-02-22T14:47:17;7.22;;;5.35;;
3081;SDS011;1551;51.046;7.010;2023-02-22T14:50:27;8.30;;;5.40;;
3081;SDS011;1551;51.046;7.010;2023-02-22T14:56:13;6.82;;;5.72;;
3081;SDS011;1551;51.046;7.010;2023-02-22T14:59:20;7.60;;;5.22;;
3081;SDS011;1551;51.046;7.010;2023-02-22T15:02:12;9.50;;;5.28;;
3081;SDS011;1551;51.046;7.010;2023-02-22T15:05:03;7.60;;;4.80;;
3081;SDS011;1551;51.046;7.010;2023-02-22T15:07:54;6.33;;;4.80;;
3081;SDS011;1551;51.046;7.010;2023-02-22T15:10:51;7.22;;;5.00;;
3081;SDS011;1551;51.046;7.010;2023-02-22T15:13:47;6.68;;;5.20;;
3081;SDS011;1551;51.046;7.010;2023-02-22T15:16:38;7.93;;;5.00;;
3081;SDS011;1551;51.046;7.010;2023-02-22T15:19:36;8.57;;;5.40;;
3081;SDS011;1551;51.046;7.010;2023-02-22T15:22:29;7.63;;;5.50;;
3081;SDS011;1551;51.046;7.010;2023-02-22T15:25:24;9.20;;;5.38;;
3081;SDS011;1551;51.046;7.010;2023-02-22T15:28:27;7.57;;;5.50;;
3081;SDS011;1551;51.046;7.010;2023-02-22T15:31:26;8.33;;;5.67;;
3081;SDS011;1551;51.046;7.010;2023-02-22T15:34:22;7.60;;;5.70;;
3081;SDS011;1551;51.046;7.010;2023-02-22T15:37:19;6.53;;;5.25;;
3081;SDS011;1551;51.046;7.010;2023-02-22T15:40:14;8.30;;;5.80;;
3081;SDS011;1551;51.046;7.010;2023-02-22T15:43:17;15.30;;;6.00;;
3081;SDS011;1551;51.046;7.010;2023-02-22T15:46:12;8.05;;;5.82;;
3081;SDS011;1551;51.046;7.010;2023-02-22T15:49:02;7.07;;;5.78;;
3081;SDS011;1551;51.046;7.010;2023-02-22T15:52:06;8.47;;;6.27;;
3081;SDS011;1551;51.046;7.010;2023-02-22T15:55:03;7.68;;;5.60;;
3081;SDS011;1551;51.046;7.010;2023-02-22T15:57:53;7.68;;;5.78;;
3081;SDS011;1551;51.046;7.010;2023-02-22T16:00:46;7.45;;;5.28;;
3081;SDS011;1551;51.046;7.010;2023-02-22T16:06:34;7.50;;;5.68;;
3081;SDS011;1551;51.046;7.010;2023-02-22T16:09:25;5.82;;;4.90;;
3081;SDS011;1551;51.046;7.010;2023-02-22T16:15:14;8.60;;;5.50;;
3081;SDS011;1551;51.046;7.010;2023-02-22T16:18:29;8.93;;;5.68;;
3081;SDS011;1551;51.046;7.010;2023-02-22T16:21:22;7.10;;;4.60;;
3081;SDS011;1551;51.046;7.010;2023-02-22T16:24:23;7.60;;;5.20;;
3081;SDS011;1551;51.046;7.010;2023-02-22T16:30:05;8.48;;;4.97;;
3081;SDS011;1551;51.046;7.010;2023-02-22T16:33:16;6.85;;;4.80;;
3081;SDS011;1551;51.046;7.010;2023-02-22T16:36:05;9.75;;;5.70;;
3081;SDS011;1551;51.046;7.010;2023-02-22T16:38:55;9.93;;;4.90;;
3081;SDS011;1551;51.046;7.010;2023-02-22T16:41:44;8.73;;;4.93;;
3081;SDS011;1551;51.046;7.010;2023-02-22T16:44:33;10.10;;;5.05;;
3081;SDS011;1551;51.046;7.010;2023-02-22T16:47:22;6.05;;;5.05;;
3081;SDS011;1551;51.046;7.010;2023-02-22T16:50:12;7.75;;;4.93;;
3081;SDS011;1551;51.046;7.010;2023-02-22T16:53:02;6.90;;;4.40;;
3081;SDS011;1551;51.046;7.010;2023-02-22T16:55:51;6.85;;;5.18;;
3081;SDS011;1551;51.046;7.010;2023-02-22T16:58:45;6.17;;;4.70;;
3081;SDS011;1551;51.046;7.010;2023-02-22T17:01:37;7.85;;;4.70;;
3081;SDS011;1551;51.046;7.010;2023-02-22T17:04:26;10.30;;;6.90;;
3081;SDS011;1551;51.046;7.010;2023-02-22T17:07:20;11.13;;;5.85;;
3081;SDS011;1551;51.046;7.010;2023-02-22T17:10:17;8.98;;;7.20;;
3081;SDS011;1551;51.046;7.010;2023-02-22T17:13:06;10.18;;;6.28;;
3081;SDS011;1551;51.046;7.010;2023-02-22T17:15:56;7.05;;;4.20;;
3081;SDS011;1551;51.046;7.010;2023-02-22T17:18:45;5.82;;;4.55;;
3081;SDS011;1551;51.046;7.010;2023-02-22T17:21:34;10.13;;;5.43;;
3081;SDS011;1551;51.046;7.010;2023-02-22T17:24:24;8.95;;;5.80;;
3081;SDS011;1551;51.046;7.010;2023-02-22T17:27:17;7.80;;;5.28;;
3081;SDS011;1551;51.046;7.010;2023-02-22T17:30:06;8.88;;;5.15;;
3081;SDS011;1551;51.046;7.010;2023-02-22T17:32:57;9.80;;;5.90;;
3081;SDS011;1551;51.046;7.010;2023-02-22T17:35:51;13.68;;;6.35;;
3081;SDS011;1551;51.046;7.010;2023-02-22T17:38:41;6.68;;;5.35;;
3081;SDS011;1551;51.046;7.010;2023-02-22T17:41:30;12.68;;;8.00;;
3081;SDS011;1551;51.046;7.010;2023-02-22T17:44:20;10.15;;;6.22;;
3081;SDS011;1551;51.046;7.010;2023-02-22T17:47:09;10.15;;;6.60;;
3081;SDS011;1551;51.046;7.010;2023-02-22T17:49:58;7.50;;;5.63;;
3081;SDS011;1551;51.046;7.010;2023-02-22T17:52:48;8.88;;;5.70;;
3081;SDS011;1551;51.046;7.010;2023-02-22T17:55:43;10.85;;;6.50;;
3081;SDS011;1551;51.046;7.010;2023-02-22T17:58:32;7.70;;;5.30;;
3081;SDS011;1551;51.046;7.010;2023-02-22T18:01:23;8.05;;;5.47;;
3081;SDS011;1551;51.046;7.010;2023-02-22T18:04:17;8.77;;;4.77;;
3081;SDS011;1551;51.046;7.010;2023-02-22T18:07:06;9.68;;;6.50;;
3081;SDS011;1551;51.046;7.010;2023-02-22T18:09:55;11.75;;;6.60;;
3081;SDS011;1551;51.046;7.010;2023-02-22T18:12:44;8.70;;;6.47;;
3081;SDS011;1551;51.046;7.010;2023-02-22T18:15:36;9.95;;;7.20;;
3081;SDS011;1551;51.046;7.010;2023-02-22T18:18:27;12.60;;;6.13;;
3081;SDS011;1551;51.046;7.010;2023-02-22T18:21:16;10.30;;;6.97;;
3081;SDS011;1551;51.046;7.010;2023-02-22T18:24:05;10.80;;;6.35;;
3081;SDS011;1551;51.046;7.010;2023-02-22T18:26:54;11.80;;;7.70;;
3081;SDS011;1551;51.046;7.010;2023-02-22T18:29:43;11.70;;;6.35;;
3081;SDS011;1551;51.046;7.010;2023-02-22T18:32:32;8.93;;;6.10;;
3081;SDS011;1551;51.046;7.010;2023-02-22T18:35:21;10.15;;;6.90;;
3081;SDS011;1551;51.046;7.010;2023-02-22T18:38:10;10.38;;;5.80;;
3081;SDS011;1551;51.046;7.010;2023-02-22T18:41:03;9.10;;;6.05;;
3081;SDS011;1551;51.046;7.010;2023-02-22T18:43:53;13.07;;;6.13;;
3081;SDS011;1551;51.046;7.010;2023-02-22T18:46:45;7.90;;;6.03;;
3081;SDS011;1551;51.046;7.010;2023-02-22T18:49:34;10.17;;;6.70;;
3081;SDS011;1551;51.046;7.010;2023-02-22T18:52:23;14.05;;;7.80;;
3081;SDS011;1551;51.046;7.010;2023-02-22T18:55:16;16.42;;;7.95;;
3081;SDS011;1551;51.046;7.010;2023-02-22T18:58:06;14.13;;;8.93;;
3081;SDS011;1551;51.046;7.010;2023-02-22T19:01:02;13.45;;;9.50;;
3081;SDS011;1551;51.046;7.010;2023-02-22T19:03:52;12.25;;;9.23;;
3081;SDS011;1551;51.046;7.010;2023-02-22T19:06:42;12.38;;;9.40;;
3081;SDS011;1551;51.046;7.010;2023-02-22T19:09:33;14.00;;;11.90;;
3081;SDS011;1551;51.046;7.010;2023-02-22T19:12:22;13.98;;;10.30;;
3081;SDS011;1551;51.046;7.010;2023-02-22T19:15:12;15.70;;;12.27;;
3081;SDS011;1551;51.046;7.010;2023-02-22T19:18:01;17.00;;;13.32;;
3081;SDS011;1551;51.046;7.010;2023-02-22T19:20:56;18.52;;;15.57;;
3081;SDS011;1551;51.046;7.010;2023-02-22T19:23:46;13.93;;;12.40;;
3081;SDS011;1551;51.046;7.010;2023-02-22T19:26:36;16.43;;;13.53;;
3081;SDS011;1551;51.046;7.010;2023-02-22T19:29:25;18.00;;;14.68;;
3081;SDS011;1551;51.046;7.010;2023-02-22T19:32:14;17.77;;;15.70;;
3081;SDS011;1551;51.046;7.010;2023-02-22T19:35:05;19.77;;;17.10;;
3081;SDS011;1551;51.046;7.010;2023-02-22T19:37:54;17.50;;;15.25;;
3081;SDS011;1551;51.046;7.010;2023-02-22T19:40:43;18.75;;;14.40;;
3081;SDS011;1551;51.046;7.010;2023-02-22T19:43:32;17.27;;;14.40;;
3081;SDS011;1551;51.046;7.010;2023-02-22T19:46:22;20.48;;;15.70;;